sensor_id;sensor_type;location;lat;lon;timestamp;pressure;altitude;pressure_sealevel;temperature;humidity
71567;BME280;59403;47.456;19.120;2024-01-11T00:02:17;101683.72;;;-4.93;100.00
71567;BME280;59403;47.456;19.120;2024-01-11T00:04:45;101685.41;;;-4.91;100.00
71567;BME280;59403;47.456;19.120;2024-01-11T00:07:12;101684.63;;;-4.94;100.00
71567;BME280;59403;47.456;19.120;2024-01-11T00:09:39;101682.13;;;-5.00;100.00
71567;BME280;59403;47.456;19.120;2024-01-11T00:12:06;101687.31;;;-5.00;100.00
71567;BME280;59403;47.456;19.120;2024-01-11T00:14:36;101681.41;;;-5.07;100.00
71567;BME280;59403;47.456;19.120;2024-01-11T00:17:06;101681.34;;;-5.02;100.00
71567;BME280;59403;47.456;19.120;2024-01-11T00:19:32;101678.69;;;-4.99;100.00
71567;BME280;59403;47.456;19.120;2024-01-11T00:22:00;101686.50;;;-5.02;100.00
71567;BME280;59403;47.456;19.120;2024-01-11T00:24:27;101677.03;;;-5.03;100.00
71567;BME280;59403;47.456;19.120;2024-01-11T00:26:54;101678.81;;;-5.07;100.00
71567;BME280;59403;47.456;19.120;2024-01-11T00:29:20;101673.75;;;-5.11;100.00
71567;BME280;59403;47.456;19.120;2024-01-11T00:31:47;101673.69;;;-5.08;100.00
71567;BME280;59403;47.456;19.120;2024-01-11T00:34:14;101671.19;;;-5.11;100.00
71567;BME280;59403;47.456;19.120;2024-01-11T00:36:40;101668.63;;;-5.13;100.00
71567;BME280;59403;47.456;19.120;2024-01-11T00:39:09;101668.59;;;-5.11;100.00
71567;BME280;59403;47.456;19.120;2024-01-11T00:41:37;101668.66;;;-5.14;100.00
71567;BME280;59403;47.456;19.120;2024-01-11T00:44:03;101666.03;;;-5.13;100.00
71567;BME280;59403;47.456;19.120;2024-01-11T00:46:30;101666.88;;;-5.12;100.00
71567;BME280;59403;47.456;19.120;2024-01-11T00:48:57;101678.16;;;-5.16;100.00
71567;BME280;59403;47.456;19.120;2024-01-11T00:51:24;101662.62;;;-5.15;100.00
71567;BME280;59403;47.456;19.120;2024-01-11T00:53:50;101657.53;;;-5.18;100.00
71567;BME280;59403;47.456;19.120;2024-01-11T00:56:19;101665.38;;;-5.24;100.00
71567;BME280;59403;47.456;19.120;2024-01-11T00:58:46;101668.81;;;-5.23;100.00
71567;BME280;59403;47.456;19.120;2024-01-11T01:01:13;101664.50;;;-5.24;100.00
71567;BME280;59403;47.456;19.120;2024-01-11T01:03:40;101652.50;;;-5.25;100.00
71567;BME280;59403;47.456;19.120;2024-01-11T01:06:06;101649.88;;;-5.24;100.00
71567;BME280;59403;47.456;19.120;2024-01-11T01:08:33;101644.72;;;-5.24;100.00
71567;BME280;59403;47.456;19.120;2024-01-11T01:11:00;101646.47;;;-5.26;100.00
71567;BME280;59403;47.456;19.120;2024-01-11T01:13:28;101637.94;;;-5.29;100.00
71567;BME280;59403;47.456;19.120;2024-01-11T01:15:54;101627.75;;;-5.35;100.00
71567;BME280;59403;47.456;19.120;2024-01-11T01:18:21;101631.13;;;-5.33;100.00
71567;BME280;59403;47.456;19.120;2024-01-11T01:20:48;101627.69;;;-5.32;100.00
71567;BME280;59403;47.456;19.120;2024-01-11T01:23:14;101631.13;;;-5.33;100.00
71567;BME280;59403;47.456;19.120;2024-01-11T01:25:41;101632.78;;;-5.29;100.00
71567;BME280;59403;47.456;19.120;2024-01-11T01:28:08;101627.69;;;-5.32;100.00
71567;BME280;59403;47.456;19.120;2024-01-11T01:30:36;101623.41;;;-5.35;100.00
71567;BME280;59403;47.456;19.120;2024-01-11T01:33:03;101618.34;;;-5.39;100.00
71567;BME280;59403;47.456;19.120;2024-01-11T01:35:30;101610.59;;;-5.39;100.00
71567;BME280;59403;47.456;19.120;2024-01-11T01:37:57;101615.72;;;-5.38;100.00
71567;BME280;59403;47.456;19.120;2024-01-11T01:40:24;101617.56;;;-5.44;100.00
71567;BME280;59403;47.456;19.120;2024-01-11T01:42:57;101607.19;;;-5.41;100.00
71567;BME280;59403;47.456;19.120;2024-01-11T01:45:24;101601.22;;;-5.45;100.00
71567;BME280;59403;47.456;19.120;2024-01-11T01:47:53;101606.31;;;-5.40;100.00
71567;BME280;59403;47.456;19.120;2024-01-11T01:50:20;101602.06;;;-5.43;100.00
71567;BME280;59403;47.456;19.120;2024-01-11T01:52:48;101594.38;;;-5.46;100.00
71567;BME280;59403;47.456;19.120;2024-01-11T01:55:17;101597.91;;;-5.51;100.00
71567;BME280;59403;47.456;19.120;2024-01-11T01:57:46;101588.41;;;-5.49;100.00
71567;BME280;59403;47.456;19.120;2024-01-11T02:00:13;101589.25;;;-5.49;100.00
71567;BME280;59403;47.456;19.120;2024-01-11T02:05:18;101585.03;;;-5.53;100.00
71567;BME280;59403;47.456;19.120;2024-01-11T02:07:45;101578.19;;;-5.55;100.00
71567;BME280;59403;47.456;19.120;2024-01-11T02:10:12;101573.00;;;-5.54;100.00
71567;BME280;59403;47.456;19.120;2024-01-11T02:12:39;101576.44;;;-5.53;100.00
71567;BME280;59403;47.456;19.120;2024-01-11T02:15:07;101572.25;;;-5.59;100.00
71567;BME280;59403;47.456;19.120;2024-01-11T02:17:34;101575.63;;;-5.55;100.00
71567;BME280;59403;47.456;19.120;2024-01-11T02:20:01;101568.72;;;-5.55;100.00
71567;BME280;59403;47.456;19.120;2024-01-11T02:22:34;101563.66;;;-5.61;100.00
71567;BME280;59403;47.456;19.120;2024-01-11T02:25:03;101561.09;;;-5.61;100.00
71567;BME280;59403;47.456;19.120;2024-01-11T02:27:30;101564.50;;;-5.59;100.00
71567;BME280;59403;47.456;19.120;2024-01-11T02:29:57;101556.81;;;-5.62;100.00
71567;BME280;59403;47.456;19.120;2024-01-11T02:32:24;101552.72;;;-5.72;100.00
71567;BME280;59403;47.456;19.120;2024-01-11T02:34:51;101553.47;;;-5.67;100.00
71567;BME280;59403;47.456;19.120;2024-01-11T02:37:18;101548.37;;;-5.71;100.00
71567;BME280;59403;47.456;19.120;2024-01-11T02:39:45;101539.84;;;-5.73;100.00
71567;BME280;59403;47.456;19.120;2024-01-11T02:42:13;101546.66;;;-5.71;100.00
71567;BME280;59403;47.456;19.120;2024-01-11T02:44:41;101538.16;;;-5.76;100.00
71567;BME280;59403;47.456;19.120;2024-01-11T02:47:07;101538.94;;;-5.72;100.00
71567;BME280;59403;47.456;19.120;2024-01-11T02:49:34;101540.62;;;-5.68;100.00
71567;BME280;59403;47.456;19.120;2024-01-11T02:52:00;101533.81;;;-5.74;100.00
71567;BME280;59403;47.456;19.120;2024-01-11T02:54:27;101533.06;;;-5.79;100.00
71567;BME280;59403;47.456;19.120;2024-01-11T02:56:54;101528.75;;;-5.80;100.00
71567;BME280;59403;47.456;19.120;2024-01-11T02:59:23;101518.47;;;-5.82;100.00
71567;BME280;59403;47.456;19.120;2024-01-11T03:01:51;101516.75;;;-5.81;100.00
71567;BME280;59403;47.456;19.120;2024-01-11T03:04:17;101512.47;;;-5.81;100.00
71567;BME280;59403;47.456;19.120;2024-01-11T03:06:44;101516.69;;;-5.78;100.00
71567;BME280;59403;47.456;19.120;2024-01-11T03:09:11;101519.41;;;-5.82;100.00
71567;BME280;59403;47.456;19.120;2024-01-11T03:11:37;101513.31;;;-5.82;100.00
71567;BME280;59403;47.456;19.120;2024-01-11T03:14:04;101506.38;;;-5.78;100.00
71567;BME280;59403;47.456;19.120;2024-01-11T03:16:32;101502.31;;;-5.88;100.00
71567;BME280;59403;47.456;19.120;2024-01-11T03:18:59;101506.56;;;-5.86;100.00
71567;BME280;59403;47.456;19.120;2024-01-11T03:21:26;101498.84;;;-5.86;100.00
71567;BME280;59403;47.456;19.120;2024-01-11T03:23:53;101493.69;;;-5.87;100.00
71567;BME280;59403;47.456;19.120;2024-01-11T03:26:19;101493.72;;;-5.89;100.00
71567;BME280;59403;47.456;19.120;2024-01-11T03:28:46;101489.44;;;-5.90;100.00
71567;BME280;59403;47.456;19.120;2024-01-11T03:31:13;101489.44;;;-5.90;100.00
71567;BME280;59403;47.456;19.120;2024-01-11T03:33:41;101486.84;;;-5.88;100.00
71567;BME280;59403;47.456;19.120;2024-01-11T03:36:08;101485.16;;;-5.91;100.00
71567;BME280;59403;47.456;19.120;2024-01-11T03:38:35;101479.19;;;-5.94;100.00
71567;BME280;59403;47.456;19.120;2024-01-11T03:41:07;101479.19;;;-5.93;100.00
71567;BME280;59403;47.456;19.120;2024-01-11T03:43:34;101476.69;;;-5.97;100.00
71567;BME280;59403;47.456;19.120;2024-01-11T03:46:00;101471.47;;;-5.93;100.00
71567;BME280;59403;47.456;19.120;2024-01-11T03:48:27;101470.63;;;-5.95;100.00
71567;BME280;59403;47.456;19.120;2024-01-11T03:50:56;101461.25;;;-5.99;100.00
71567;BME280;59403;47.456;19.120;2024-01-11T03:53:23;101461.22;;;-5.97;100.00
71567;BME280;59403;47.456;19.120;2024-01-11T03:55:50;101452.62;;;-5.96;100.00
71567;BME280;59403;47.456;19.120;2024-01-11T03:58:16;101452.69;;;-6.01;100.00
71567;BME280;59403;47.456;19.120;2024-01-11T04:00:43;101458.72;;;-6.02;100.00
71567;BME280;59403;47.456;19.120;2024-01-11T04:03:10;101449.41;;;-6.09;100.00
71567;BME280;59403;47.456;19.120;2024-01-11T04:05:36;101453.56;;;-6.02;100.00
71567;BME280;59403;47.456;19.120;2024-01-11T04:08:06;101451.00;;;-6.02;100.00
71567;BME280;59403;47.456;19.120;2024-01-11T04:10:33;101447.59;;;-6.04;100.00
71567;BME280;59403;47.456;19.120;2024-01-11T04:12:59;101445.91;;;-6.05;100.00
71567;BME280;59403;47.456;19.120;2024-01-11T04:15:26;101454.44;;;-6.01;100.00
71567;BME280;59403;47.456;19.120;2024-01-11T04:17:53;101453.56;;;-6.02;100.00
71567;BME280;59403;47.456;19.120;2024-01-11T04:20:19;101457.19;;;-6.12;100.00
71567;BME280;59403;47.456;19.120;2024-01-11T04:22:46;101462.31;;;-6.10;100.00
71567;BME280;59403;47.456;19.120;2024-01-11T04:25:14;101455.41;;;-6.10;100.00
71567;BME280;59403;47.456;19.120;2024-01-11T04:27:40;101457.97;;;-6.07;100.00
71567;BME280;59403;47.456;19.120;2024-01-11T04:30:08;101460.56;;;-6.10;100.00
71567;BME280;59403;47.456;19.120;2024-01-11T04:32:34;101452.75;;;-6.04;100.00
71567;BME280;59403;47.456;19.120;2024-01-11T04:35:01;101453.78;;;-6.14;100.00
71567;BME280;59403;47.456;19.120;2024-01-11T04:37:27;101457.25;;;-6.16;100.00
71567;BME280;59403;47.456;19.120;2024-01-11T04:39:54;101469.28;;;-6.17;100.00
71567;BME280;59403;47.456;19.120;2024-01-11T04:42:26;101459.97;;;-6.22;100.00
71567;BME280;59403;47.456;19.120;2024-01-11T04:44:53;101458.19;;;-6.19;100.00
71567;BME280;59403;47.456;19.120;2024-01-11T04:47:20;101456.53;;;-6.23;100.00
71567;BME280;59403;47.456;19.120;2024-01-11T04:49:46;101458.19;;;-6.20;100.00
71567;BME280;59403;47.456;19.120;2024-01-11T04:52:13;101452.25;;;-6.24;100.00
71567;BME280;59403;47.456;19.120;2024-01-11T04:54:39;101454.81;;;-6.22;100.00
71567;BME280;59403;47.456;19.120;2024-01-11T04:57:06;101447.94;;;-6.23;100.00
71567;BME280;59403;47.456;19.120;2024-01-11T04:59:34;101448.81;;;-6.24;100.00
71567;BME280;59403;47.456;19.120;2024-01-11T05:02:01;101460.09;;;-6.31;100.00
71567;BME280;59403;47.456;19.120;2024-01-11T05:04:27;101454.91;;;-6.30;100.00
71567;BME280;59403;47.456;19.120;2024-01-11T05:06:54;101460.87;;;-6.26;100.00
71567;BME280;59403;47.456;19.120;2024-01-11T05:09:20;101455.66;;;-6.23;100.00
71567;BME280;59403;47.456;19.120;2024-01-11T05:11:47;101453.94;;;-6.23;100.00
71567;BME280;59403;47.456;19.120;2024-01-11T05:14:13;101452.25;;;-6.24;100.00
71567;BME280;59403;47.456;19.120;2024-01-11T05:16:41;101451.44;;;-6.26;100.00
71567;BME280;59403;47.456;19.120;2024-01-11T05:19:08;101449.84;;;-6.34;100.00
71567;BME280;59403;47.456;19.120;2024-01-11T05:21:35;101447.34;;;-6.39;100.00
71567;BME280;59403;47.456;19.120;2024-01-11T05:24:02;101449.91;;;-6.39;100.00
71567;BME280;59403;47.456;19.120;2024-01-11T05:26:28;101440.44;;;-6.37;100.00
71567;BME280;59403;47.456;19.120;2024-01-11T05:28:55;101444.69;;;-6.36;100.00
71567;BME280;59403;47.456;19.120;2024-01-11T05:31:22;101449.03;;;-6.36;100.00
71567;BME280;59403;47.456;19.120;2024-01-11T05:33:50;101448.16;;;-6.37;100.00
71567;BME280;59403;47.456;19.120;2024-01-11T05:36:16;101449.84;;;-6.36;100.00
71567;BME280;59403;47.456;19.120;2024-01-11T05:38:45;101458.38;;;-6.32;100.00
71567;BME280;59403;47.456;19.120;2024-01-11T05:41:12;101457.56;;;-6.33;100.00
71567;BME280;59403;47.456;19.120;2024-01-11T05:43:40;101466.28;;;-6.41;100.00
71567;BME280;59403;47.456;19.120;2024-01-11T05:46:07;101451.66;;;-6.41;100.00
71567;BME280;59403;47.456;19.120;2024-01-11T05:48:34;101452.44;;;-6.36;100.00
71567;BME280;59403;47.456;19.120;2024-01-11T05:51:02;101444.78;;;-6.40;100.00
71567;BME280;59403;47.456;19.120;2024-01-11T05:53:29;101444.78;;;-6.40;100.00
71567;BME280;59403;47.456;19.120;2024-01-11T05:55:58;101452.62;;;-6.48;100.00
71567;BME280;59403;47.456;19.120;2024-01-11T05:58:25;101444.91;;;-6.48;100.00
71567;BME280;59403;47.456;19.120;2024-01-11T06:00:52;101455.13;;;-6.42;100.00
71567;BME280;59403;47.456;19.120;2024-01-11T06:03:20;101460.22;;;-6.39;100.00
71567;BME280;59403;47.456;19.120;2024-01-11T06:05:47;101452.56;;;-6.43;100.00
71567;BME280;59403;47.456;19.120;2024-01-11T06:08:15;101444.88;;;-6.45;100.00
71567;BME280;59403;47.456;19.120;2024-01-11T06:10:42;101453.53;;;-6.49;100.00
71567;BME280;59403;47.456;19.120;2024-01-11T06:13:08;101454.41;;;-6.50;100.00
71567;BME280;59403;47.456;19.120;2024-01-11T06:15:35;101447.47;;;-6.48;100.00
71567;BME280;59403;47.456;19.120;2024-01-11T06:18:02;101450.94;;;-6.49;100.00
71567;BME280;59403;47.456;19.120;2024-01-11T06:20:30;101443.16;;;-6.46;100.00
71567;BME280;59403;47.456;19.120;2024-01-11T06:22:56;101438.91;;;-6.47;100.00
71567;BME280;59403;47.456;19.120;2024-01-11T06:25:24;101430.41;;;-6.52;100.00
71567;BME280;59403;47.456;19.120;2024-01-11T06:27:51;101442.44;;;-6.54;100.00
71567;BME280;59403;47.456;19.120;2024-01-11T06:30:17;101434.75;;;-6.55;100.00
71567;BME280;59403;47.456;19.120;2024-01-11T06:32:44;101440.75;;;-6.56;100.00
71567;BME280;59403;47.456;19.120;2024-01-11T06:35:10;101435.59;;;-6.53;100.00
71567;BME280;59403;47.456;19.120;2024-01-11T06:37:37;101439.75;;;-6.48;100.00
71567;BME280;59403;47.456;19.120;2024-01-11T06:40:05;101442.34;;;-6.49;100.00
71567;BME280;59403;47.456;19.120;2024-01-11T06:42:35;101427.72;;;-6.47;100.00
71567;BME280;59403;47.456;19.120;2024-01-11T06:45:02;101432.16;;;-6.54;100.00
71567;BME280;59403;47.456;19.120;2024-01-11T06:47:29;101427.03;;;-6.55;100.00
71567;BME280;59403;47.456;19.120;2024-01-11T06:49:56;101433.75;;;-6.47;100.00
71567;BME280;59403;47.456;19.120;2024-01-11T06:52:22;101430.22;;;-6.41;100.00
71567;BME280;59403;47.456;19.120;2024-01-11T06:54:49;101433.53;;;-6.35;100.00
71567;BME280;59403;47.456;19.120;2024-01-11T06:57:16;101433.50;;;-6.33;100.00
71567;BME280;59403;47.456;19.120;2024-01-11T06:59:44;101429.25;;;-6.34;100.00
71567;BME280;59403;47.456;19.120;2024-01-11T07:02:11;101430.09;;;-6.35;100.00
71567;BME280;59403;47.456;19.120;2024-01-11T07:04:43;101430.84;;;-6.29;100.00
71567;BME280;59403;47.456;19.120;2024-01-11T07:07:10;101435.09;;;-6.26;100.00
71567;BME280;59403;47.456;19.120;2024-01-11T07:09:36;101424.78;;;-6.26;100.00
71567;BME280;59403;47.456;19.120;2024-01-11T07:12:04;101434.31;;;-6.30;100.00
71567;BME280;59403;47.456;19.120;2024-01-11T07:14:31;101425.69;;;-6.29;100.00
71567;BME280;59403;47.456;19.120;2024-01-11T07:16:59;101429.94;;;-6.26;100.00
71567;BME280;59403;47.456;19.120;2024-01-11T07:19:26;101432.38;;;-6.17;100.00
71567;BME280;59403;47.456;19.120;2024-01-11T07:21:52;101419.38;;;-6.13;100.00
71567;BME280;59403;47.456;19.120;2024-01-11T07:24:19;101423.66;;;-6.10;100.00
71567;BME280;59403;47.456;19.120;2024-01-11T07:26:46;101416.75;;;-6.10;100.00
71567;BME280;59403;47.456;19.120;2024-01-11T07:29:12;101416.69;;;-6.05;100.00
71567;BME280;59403;47.456;19.120;2024-01-11T07:31:39;101420.97;;;-6.06;100.00
71567;BME280;59403;47.456;19.120;2024-01-11T07:34:07;101426.81;;;-5.95;100.00
71567;BME280;59403;47.456;19.120;2024-01-11T07:36:33;101426.66;;;-5.89;100.00
71567;BME280;59403;47.456;19.120;2024-01-11T07:39:00;101429.16;;;-5.82;100.00
71567;BME280;59403;47.456;19.120;2024-01-11T07:41:27;101428.41;;;-5.89;100.00
71567;BME280;59403;47.456;19.120;2024-01-11T07:43:53;101415.31;;;-5.82;100.00
71567;BME280;59403;47.456;19.120;2024-01-11T07:46:23;101410.09;;;-5.77;100.00
71567;BME280;59403;47.456;19.120;2024-01-11T07:48:50;101415.12;;;-5.71;100.00
71567;BME280;59403;47.456;19.120;2024-01-11T07:51:18;101420.13;;;-5.63;100.00
71567;BME280;59403;47.456;19.120;2024-01-11T07:53:45;101409.81;;;-5.63;100.00
71567;BME280;59403;47.456;19.120;2024-01-11T07:56:12;101419.06;;;-5.53;100.00
71567;BME280;59403;47.456;19.120;2024-01-11T07:58:40;101413.06;;;-5.55;100.00
71567;BME280;59403;47.456;19.120;2024-01-11T08:01:07;101415.50;;;-5.48;100.00
71567;BME280;59403;47.456;19.120;2024-01-11T08:03:37;101416.22;;;-5.41;100.00
71567;BME280;59403;47.456;19.120;2024-01-11T08:06:04;101398.94;;;-5.38;100.00
71567;BME280;59403;47.456;19.120;2024-01-11T08:08:34;101397.91;;;-5.29;100.00
71567;BME280;59403;47.456;19.120;2024-01-11T08:11:01;101401.12;;;-5.20;100.00
71567;BME280;59403;47.456;19.120;2024-01-11T08:13:28;101389.72;;;-5.10;100.00
71567;BME280;59403;47.456;19.120;2024-01-11T08:15:56;101392.19;;;-5.05;100.00
71567;BME280;59403;47.456;19.120;2024-01-11T08:18:23;101384.47;;;-5.07;100.00
71567;BME280;59403;47.456;19.120;2024-01-11T08:20:50;101381.69;;;-4.98;100.00
71567;BME280;59403;47.456;19.120;2024-01-11T08:23:16;101389.44;;;-4.98;100.00
71567;BME280;59403;47.456;19.120;2024-01-11T08:25:44;101378.81;;;-4.86;100.00
71567;BME280;59403;47.456;19.120;2024-01-11T08:28:11;101373.44;;;-4.77;100.00
71567;BME280;59403;47.456;19.120;2024-01-11T08:30:38;101375.84;;;-4.71;100.00
71567;BME280;59403;47.456;19.120;2024-01-11T08:33:04;101373.22;;;-4.69;100.00
71567;BME280;59403;47.456;19.120;2024-01-11T08:35:31;101371.41;;;-4.64;100.00
71567;BME280;59403;47.456;19.120;2024-01-11T08:37:57;101368.75;;;-4.61;100.00
71567;BME280;59403;47.456;19.120;2024-01-11T08:40:24;101366.88;;;-4.56;100.00
71567;BME280;59403;47.456;19.120;2024-01-11T08:42:52;101365.75;;;-4.46;100.00
71567;BME280;59403;47.456;19.120;2024-01-11T08:45:19;101362.22;;;-4.42;100.00
71567;BME280;59403;47.456;19.120;2024-01-11T08:47:47;101374.91;;;-4.33;100.00
71567;BME280;59403;47.456;19.120;2024-01-11T08:50:15;101363.72;;;-4.33;100.00
71567;BME280;59403;47.456;19.120;2024-01-11T08:52:43;101357.97;;;-4.12;100.00
71567;BME280;59403;47.456;19.120;2024-01-11T08:55:09;101349.13;;;-4.04;100.00
71567;BME280;59403;47.456;19.120;2024-01-11T08:57:38;101352.41;;;-3.99;100.00
71567;BME280;59403;47.456;19.120;2024-01-11T09:00:07;101353.09;;;-3.92;100.00
71567;BME280;59403;47.456;19.120;2024-01-11T09:02:33;101365.81;;;-3.85;100.00
71567;BME280;59403;47.456;19.120;2024-01-11T09:05:00;101369.97;;;-3.79;100.00
71567;BME280;59403;47.456;19.120;2024-01-11T09:07:27;101368.97;;;-3.74;100.00
71567;BME280;59403;47.456;19.120;2024-01-11T09:09:53;101359.94;;;-3.61;100.00
71567;BME280;59403;47.456;19.120;2024-01-11T09:12:21;101352.78;;;-3.53;100.00
71567;BME280;59403;47.456;19.120;2024-01-11T09:14:48;101351.69;;;-3.44;100.00
71567;BME280;59403;47.456;19.120;2024-01-11T09:17:16;101355.59;;;-3.31;100.00
71567;BME280;59403;47.456;19.120;2024-01-11T09:19:43;101346.81;;;-3.25;100.00
71567;BME280;59403;47.456;19.120;2024-01-11T09:22:12;101345.50;;;-3.12;100.00
71567;BME280;59403;47.456;19.120;2024-01-11T09:24:39;101337.28;;;-2.99;100.00
71567;BME280;59403;47.456;19.120;2024-01-11T09:27:06;101339.59;;;-2.90;100.00
71567;BME280;59403;47.456;19.120;2024-01-11T09:29:33;101345.41;;;-2.82;100.00
71567;BME280;59403;47.456;19.120;2024-01-11T09:32:00;101334.69;;;-2.71;100.00
71567;BME280;59403;47.456;19.120;2024-01-11T09:34:27;101331.97;;;-2.68;100.00
71567;BME280;59403;47.456;19.120;2024-01-11T09:36:54;101321.16;;;-2.55;100.00
71567;BME280;59403;47.456;19.120;2024-01-11T09:39:24;101315.41;;;-2.38;100.00
71567;BME280;59403;47.456;19.120;2024-01-11T09:41:56;101302.03;;;-2.28;100.00
71567;BME280;59403;47.456;19.120;2024-01-11T09:44:25;101299.22;;;-2.21;100.00
71567;BME280;59403;47.456;19.120;2024-01-11T09:46:52;101274.81;;;-2.16;100.00
71567;BME280;59403;47.456;19.120;2024-01-11T09:49:21;101255.28;;;-2.03;100.00
71567;BME280;59403;47.456;19.120;2024-01-11T09:51:50;101261.59;;;-1.87;100.00
71567;BME280;59403;47.456;19.120;2024-01-11T09:54:18;101255.00;;;-1.72;100.00
71567;BME280;59403;47.456;19.120;2024-01-11T09:56:46;101245.03;;;-1.61;100.00
71567;BME280;59403;47.456;19.120;2024-01-11T09:59:15;101244.94;;;-1.58;98.94
71567;BME280;59403;47.456;19.120;2024-01-11T10:01:44;101241.28;;;-1.33;96.11
71567;BME280;59403;47.456;19.120;2024-01-11T10:04:11;101223.25;;;-1.36;95.77
71567;BME280;59403;47.456;19.120;2024-01-11T10:06:39;101225.22;;;-1.21;94.79
71567;BME280;59403;47.456;19.120;2024-01-11T10:09:07;101232.63;;;-1.11;93.24
71567;BME280;59403;47.456;19.120;2024-01-11T10:11:34;101232.75;;;-1.15;88.29
71567;BME280;59403;47.456;19.120;2024-01-11T10:14:01;101232.50;;;-1.08;88.87
71567;BME280;59403;47.456;19.120;2024-01-11T10:16:30;101228.09;;;-1.06;87.49
71567;BME280;59403;47.456;19.120;2024-01-11T10:18:57;101212.87;;;-0.95;84.90
71567;BME280;59403;47.456;19.120;2024-01-11T10:21:24;101219.13;;;-0.99;83.62
71567;BME280;59403;47.456;19.120;2024-01-11T10:23:51;101211.97;;;-0.94;82.81
71567;BME280;59403;47.456;19.120;2024-01-11T10:26:19;101186.88;;;-0.95;82.59
71567;BME280;59403;47.456;19.120;2024-01-11T10:28:47;101202.09;;;-0.86;79.62
71567;BME280;59403;47.456;19.120;2024-01-11T10:31:14;101204.31;;;-0.77;81.28
71567;BME280;59403;47.456;19.120;2024-01-11T10:33:41;101204.06;;;-0.71;78.86
71567;BME280;59403;47.456;19.120;2024-01-11T10:36:08;101202.09;;;-0.66;77.04
71567;BME280;59403;47.456;19.120;2024-01-11T10:38:37;101199.75;;;-0.72;79.45
71567;BME280;59403;47.456;19.120;2024-01-11T10:41:05;101200.31;;;-0.66;79.83
71567;BME280;59403;47.456;19.120;2024-01-11T10:43:36;101191.56;;;-0.63;78.58
71567;BME280;59403;47.456;19.120;2024-01-11T10:46:04;101191.28;;;-0.57;78.00
71567;BME280;59403;47.456;19.120;2024-01-11T10:48:35;101184.12;;;-0.52;77.08
71567;BME280;59403;47.456;19.120;2024-01-11T10:51:05;101184.22;;;-0.35;76.20
71567;BME280;59403;47.456;19.120;2024-01-11T10:53:41;101181.94;;;-0.43;77.49
71567;BME280;59403;47.456;19.120;2024-01-11T10:56:09;101177.59;;;-0.42;76.22
71567;BME280;59403;47.456;19.120;2024-01-11T10:58:41;101174.94;;;-0.41;77.61
71567;BME280;59403;47.456;19.120;2024-01-11T11:01:08;101170.44;;;-0.37;77.61
71567;BME280;59403;47.456;19.120;2024-01-11T11:03:37;101154.53;;;-0.31;75.58
71567;BME280;59403;47.456;19.120;2024-01-11T11:06:05;101149.13;;;-0.27;76.25
71567;BME280;59403;47.456;19.120;2024-01-11T11:08:32;101136.03;;;-0.25;76.36
71567;BME280;59403;47.456;19.120;2024-01-11T11:11:02;101130.00;;;-0.26;75.10
71567;BME280;59403;47.456;19.120;2024-01-11T11:13:31;101136.59;;;-0.19;75.29
71567;BME280;59403;47.456;19.120;2024-01-11T11:16:01;101135.31;;;-0.10;74.51
71567;BME280;59403;47.456;19.120;2024-01-11T11:18:31;101129.16;;;-0.08;75.08
71567;BME280;59403;47.456;19.120;2024-01-11T11:21:00;101120.34;;;-0.05;76.46
71567;BME280;59403;47.456;19.120;2024-01-11T11:23:30;101120.06;;;0.01;76.68
71567;BME280;59403;47.456;19.120;2024-01-11T11:25:57;101127.09;;;-0.01;77.72
71567;BME280;59403;47.456;19.120;2024-01-11T11:28:24;101136.41;;;-0.14;78.33
71567;BME280;59403;47.456;19.120;2024-01-11T11:30:53;101132.78;;;-0.12;79.73
71567;BME280;59403;47.456;19.120;2024-01-11T11:33:24;101123.38;;;-0.14;80.67
71567;BME280;59403;47.456;19.120;2024-01-11T11:35:53;101124.09;;;-0.11;81.12
71567;BME280;59403;47.456;19.120;2024-01-11T11:38:21;101114.44;;;-0.09;81.30
71567;BME280;59403;47.456;19.120;2024-01-11T11:40:50;101106.88;;;0.04;81.58
71567;BME280;59403;47.456;19.120;2024-01-11T11:43:18;101096.53;;;0.03;81.80
71567;BME280;59403;47.456;19.120;2024-01-11T11:45:46;101090.94;;;-0.07;83.31
71567;BME280;59403;47.456;19.120;2024-01-11T11:48:52;101086.12;;;0.03;83.36
71567;BME280;59403;47.456;19.120;2024-01-11T11:51:20;101091.50;;;-0.01;84.08
71567;BME280;59403;47.456;19.120;2024-01-11T11:53:48;101097.25;;;0.06;84.55
71567;BME280;59403;47.456;19.120;2024-01-11T11:56:16;101093.59;;;0.10;84.37
71567;BME280;59403;47.456;19.120;2024-01-11T11:58:44;101095.19;;;0.13;83.41
71567;BME280;59403;47.456;19.120;2024-01-11T12:01:13;101089.69;;;0.19;82.73
71567;BME280;59403;47.456;19.120;2024-01-11T12:03:41;101083.41;;;0.23;81.84
71567;BME280;59403;47.456;19.120;2024-01-11T12:06:13;101073.28;;;0.17;82.40
71567;BME280;59403;47.456;19.120;2024-01-11T12:08:41;101057.59;;;0.18;83.02
71567;BME280;59403;47.456;19.120;2024-01-11T12:11:08;101068.53;;;0.25;81.89
71567;BME280;59403;47.456;19.120;2024-01-11T12:13:35;101062.34;;;0.27;82.08
71567;BME280;59403;47.456;19.120;2024-01-11T12:16:03;101066.34;;;0.34;81.52
71567;BME280;59403;47.456;19.120;2024-01-11T12:18:30;101044.56;;;0.35;82.65
71567;BME280;59403;47.456;19.120;2024-01-11T12:20:56;101047.13;;;0.54;80.96
71567;BME280;59403;47.456;19.120;2024-01-11T12:23:25;101036.81;;;0.51;80.01
71567;BME280;59403;47.456;19.120;2024-01-11T12:25:51;101035.44;;;0.44;80.92
71567;BME280;59403;47.456;19.120;2024-01-11T12:28:21;101046.69;;;0.61;79.45
71567;BME280;59403;47.456;19.120;2024-01-11T12:30:47;101039.75;;;0.62;79.53
71567;BME280;59403;47.456;19.120;2024-01-11T12:33:15;101038.88;;;0.61;79.12
71567;BME280;59403;47.456;19.120;2024-01-11T12:35:42;101022.94;;;0.67;80.13
71567;BME280;59403;47.456;19.120;2024-01-11T12:38:09;101031.66;;;0.66;78.36